Laurens County Airport


Codes: KLUX/
Name: Laurens County Airport
City: Laurens
Country: United States
Elevation: 697 ft.

Photos at Laurens County Airport


   Photos courtesy of SpottingLog. You can add your own sightings and photos by signing up for a free trial today.



No photos found.

Weather at Laurens County Airport


Time (UTC)DescriptionTempratureWindCloud coverageVisibilityPressureHumidity
15-Apr-2024 15:00Clear Sky24°C9 mph, W0%10000m1017hPa51%
15-Apr-2024 18:00Clear Sky25°C11 mph, W0%10000m1017hPa46%
15-Apr-2024 21:00Clear Sky27°C11 mph, W0%10000m1016hPa43%
16-Apr-2024 00:00Light Rain20°C7 mph, SW0%10000m1015hPa71%
16-Apr-2024 03:00Overcast Clouds18°C7 mph, SW99%10000m1017hPa67%
16-Apr-2024 06:00Light Rain16°C4 mph, SW100%10000m1017hPa76%
16-Apr-2024 09:00Overcast Clouds16°C4 mph, W98%10000m1018hPa88%
16-Apr-2024 12:00Overcast Clouds17°C2 mph, W99%10000m1019hPa84%
16-Apr-2024 15:00Broken Clouds25°C7 mph, SW83%10000m1020hPa53%
16-Apr-2024 18:00Overcast Clouds28°C7 mph, SW87%10000m1018hPa36%
16-Apr-2024 21:00Overcast Clouds27°C7 mph, SW100%10000m1017hPa43%
17-Apr-2024 00:00Overcast Clouds20°C4 mph, S100%10000m1018hPa66%
17-Apr-2024 03:00Overcast Clouds18°C7 mph, SW100%10000m1019hPa74%
17-Apr-2024 06:00Overcast Clouds18°C4 mph, SW100%10000m1018hPa74%
17-Apr-2024 09:00Overcast Clouds16°C4 mph, SW100%10000m1018hPa80%
17-Apr-2024 12:00Overcast Clouds17°C7 mph, SW100%10000m1019hPa78%
17-Apr-2024 15:00Overcast Clouds23°C9 mph, S100%10000m1018hPa57%
17-Apr-2024 18:00Overcast Clouds27°C11 mph, SW100%10000m1017hPa42%
17-Apr-2024 21:00Overcast Clouds26°C7 mph, SW100%10000m1015hPa49%
18-Apr-2024 00:00Overcast Clouds21°C9 mph, SW100%10000m1016hPa63%
18-Apr-2024 03:00Overcast Clouds19°C7 mph, SW100%10000m1017hPa70%
18-Apr-2024 06:00Light Rain16°C7 mph, SW100%10000m1016hPa91%
18-Apr-2024 09:00Clear Sky16°C4 mph, SW0%10000m1015hPa94%
18-Apr-2024 12:00Clear Sky17°C4 mph, SW0%10000m1016hPa93%
18-Apr-2024 15:00Clear Sky25°C7 mph, W0%10000m1017hPa59%
18-Apr-2024 18:00Clear Sky29°C7 mph, W2%10000m1015hPa43%
18-Apr-2024 21:00Clear Sky30°C7 mph, W0%10000m1013hPa41%
19-Apr-2024 00:00Clear Sky23°C2 mph, SW0%10000m1014hPa66%
19-Apr-2024 03:00Light Rain19°C4 mph, SW2%10000m1014hPa78%
19-Apr-2024 06:00Light Rain17°C2 mph, NW32%10000m1014hPa89%
19-Apr-2024 09:00Light Rain16°C4 mph, NW61%10000m1014hPa96%
19-Apr-2024 12:00Broken Clouds17°C0 mph, N75%10000m1015hPa93%
19-Apr-2024 15:00Light Rain18°C2 mph, W100%10000m1016hPa92%
19-Apr-2024 18:00Overcast Clouds25°C9 mph, SW99%10000m1013hPa60%
19-Apr-2024 21:00Overcast Clouds26°C9 mph, W100%10000m1011hPa55%
20-Apr-2024 00:00Overcast Clouds23°C9 mph, W100%10000m1012hPa69%
20-Apr-2024 03:00Overcast Clouds20°C7 mph, W100%10000m1013hPa83%
20-Apr-2024 06:00Overcast Clouds18°C4 mph, NW100%10000m1013hPa94%
20-Apr-2024 09:00Overcast Clouds17°C2 mph, N100%10000m1013hPa93%
20-Apr-2024 12:00Overcast Clouds18°C7 mph, N100%10000m1015hPa79%